createdAt,value
2018-08-14T00:01:49.094Z,6.47
2018-08-14T00:04:17.867Z,7.83
2018-08-14T00:06:46.471Z,7.77
2018-08-14T00:09:15.155Z,7.77
2018-08-14T00:11:43.688Z,8.13
2018-08-14T00:14:13.045Z,8.70
2018-08-14T00:16:41.754Z,10.93
2018-08-14T00:19:10.409Z,9.20
2018-08-14T00:21:39.123Z,8.30
2018-08-14T00:24:08.497Z,8.90
2018-08-14T00:26:37.328Z,8.17
2018-08-14T00:29:06.035Z,8.37
2018-08-14T00:31:34.713Z,8.60
2018-08-14T00:34:03.349Z,7.93
2018-08-14T00:36:31.993Z,8.40
2018-08-14T00:39:00.642Z,8.53
2018-08-14T00:41:29.353Z,10.27
2018-08-14T00:43:57.913Z,8.87
2018-08-14T00:46:26.508Z,9.03
2018-08-14T00:48:55.136Z,9.27
2018-08-14T00:51:23.781Z,9.73
2018-08-14T00:53:52.356Z,9.00
2018-08-14T00:56:21.055Z,10.40
2018-08-14T00:58:49.845Z,9.93
2018-08-14T01:01:18.470Z,9.97
2018-08-14T01:03:47.251Z,11.10
2018-08-14T01:06:15.800Z,11.03
2018-08-14T01:08:44.605Z,9.87
2018-08-14T01:11:13.462Z,10.13
2018-08-14T01:13:42.161Z,11.13
2018-08-14T01:16:10.750Z,9.80
2018-08-14T01:18:39.364Z,9.83
2018-08-14T01:21:08.001Z,10.50
2018-08-14T01:23:36.823Z,11.43
2018-08-14T01:26:05.523Z,10.77
2018-08-14T01:28:34.125Z,11.43
2018-08-14T01:31:02.709Z,10.87
2018-08-14T01:33:31.334Z,12.50
2018-08-14T01:35:59.876Z,11.40
2018-08-14T01:38:28.462Z,12.07
2018-08-14T01:40:57.004Z,10.57
2018-08-14T01:43:25.768Z,11.53
2018-08-14T01:45:54.992Z,10.77
2018-08-14T01:48:23.740Z,12.57
2018-08-14T01:50:52.415Z,13.53
2018-08-14T01:53:21.126Z,13.90
2018-08-14T01:55:49.798Z,13.47
2018-08-14T01:58:18.526Z,12.27
2018-08-14T02:00:47.114Z,12.47
2018-08-14T02:03:15.734Z,13.40
2018-08-14T02:05:44.528Z,13.70
2018-08-14T02:08:13.217Z,14.33
2018-08-14T02:10:42.028Z,16.53
2018-08-14T02:13:10.668Z,14.77
2018-08-14T02:15:39.324Z,14.80
2018-08-14T02:18:08.460Z,18.93
2018-08-14T02:20:37.063Z,16.17
2018-08-14T02:23:05.795Z,16.43
2018-08-14T02:25:34.379Z,17.27
2018-08-14T02:28:02.983Z,16.13
2018-08-14T02:30:31.636Z,18.67
2018-08-14T02:33:00.232Z,18.97
2018-08-14T02:35:28.831Z,18.30
2018-08-14T02:37:57.560Z,18.10
2018-08-14T02:40:26.162Z,20.07
2018-08-14T02:42:54.752Z,19.47
2018-08-14T02:45:23.393Z,18.50
2018-08-14T02:47:52.038Z,16.80
2018-08-14T02:50:20.755Z,21.43
2018-08-14T02:52:49.499Z,18.13
2018-08-14T02:55:20.906Z,19.97
2018-08-14T02:57:49.647Z,21.37
2018-08-14T03:00:20.622Z,19.67
2018-08-14T03:02:49.274Z,18.63
2018-08-14T03:05:17.924Z,22.10
2018-08-14T03:07:46.604Z,16.33
2018-08-14T03:10:15.203Z,18.60
2018-08-14T03:12:44.224Z,18.33
2018-08-14T03:15:14.693Z,19.43
2018-08-14T03:17:43.388Z,17.63
2018-08-14T03:20:12.053Z,17.50
2018-08-14T03:22:40.684Z,17.93
2018-08-14T03:25:09.400Z,18.10
2018-08-14T03:27:38.034Z,16.60
2018-08-14T03:30:07.083Z,17.90
2018-08-14T03:32:35.747Z,20.37
2018-08-14T03:35:05.208Z,23.30
2018-08-14T03:37:33.823Z,18.13
2018-08-14T03:40:02.421Z,19.20
2018-08-14T03:42:31.103Z,18.23
2018-08-14T03:44:59.765Z,20.77
2018-08-14T03:47:28.480Z,18.80
2018-08-14T03:49:57.114Z,23.33
2018-08-14T03:52:25.755Z,20.87
2018-08-14T03:54:54.522Z,17.47
2018-08-14T03:57:23.280Z,21.63
2018-08-14T03:59:51.880Z,17.60
2018-08-14T04:02:20.597Z,18.67
2018-08-14T04:04:49.302Z,17.90
2018-08-14T04:07:17.900Z,21.63
2018-08-14T04:09:46.547Z,16.40
2018-08-14T04:12:15.182Z,21.90
2018-08-14T04:14:43.762Z,19.13
2018-08-14T04:17:12.311Z,19.70
2018-08-14T04:19:40.941Z,17.47
2018-08-14T04:22:09.838Z,20.83
2018-08-14T04:24:38.422Z,18.93
2018-08-14T04:27:07.024Z,17.07
2018-08-14T04:29:35.894Z,22.77
2018-08-14T04:32:04.675Z,20.03
2018-08-14T04:34:33.269Z,19.87
2018-08-14T04:37:01.913Z,19.20
2018-08-14T04:39:30.571Z,20.80
2018-08-14T04:41:59.288Z,19.50
2018-08-14T04:44:27.956Z,18.67
2018-08-14T04:46:56.631Z,22.20
2018-08-14T04:49:25.475Z,23.67
2018-08-14T04:51:54.417Z,19.67
2018-08-14T04:54:23.055Z,20.17
2018-08-14T04:56:51.738Z,22.33
2018-08-14T04:59:20.387Z,22.90
2018-08-14T05:01:49.034Z,20.87
2018-08-14T05:04:17.624Z,18.80
2018-08-14T05:06:46.194Z,19.83
2018-08-14T05:09:15.787Z,20.50
2018-08-14T05:11:44.697Z,21.60
2018-08-14T05:14:13.533Z,20.37
2018-08-14T05:16:42.331Z,19.43
2018-08-14T05:19:10.976Z,21.63
2018-08-14T05:21:39.876Z,24.37
2018-08-14T05:24:08.707Z,24.90
2018-08-14T05:26:37.393Z,21.37
2018-08-14T05:29:06.123Z,18.90
2018-08-14T05:31:34.767Z,23.13
2018-08-14T05:34:03.468Z,22.13
2018-08-14T05:36:32.214Z,27.50
2018-08-14T05:39:00.988Z,22.97
2018-08-14T05:41:29.859Z,23.23
2018-08-14T05:43:58.740Z,23.87
2018-08-14T05:46:27.859Z,24.73
2018-08-14T05:48:56.552Z,27.73
2018-08-14T05:51:25.333Z,24.63
2018-08-14T05:53:54.052Z,23.30
2018-08-14T05:56:22.793Z,22.70
2018-08-14T05:58:51.646Z,22.87
2018-08-14T06:01:20.395Z,20.00
2018-08-14T06:03:49.171Z,22.93
2018-08-14T06:06:17.840Z,23.33
2018-08-14T06:08:46.517Z,17.73
2018-08-14T06:11:15.164Z,15.90
2018-08-14T06:13:43.827Z,19.37
2018-08-14T06:16:12.579Z,17.40
2018-08-14T06:18:41.253Z,23.43
2018-08-14T06:21:10.024Z,17.83
2018-08-14T06:23:38.633Z,18.57
2018-08-14T06:26:08.045Z,16.57
2018-08-14T06:28:36.765Z,17.33
2018-08-14T06:31:05.685Z,17.40
2018-08-14T06:33:34.388Z,18.37
2018-08-14T06:36:04.567Z,17.93
2018-08-14T06:38:33.732Z,17.37
2018-08-14T06:41:02.524Z,18.07
2018-08-14T06:43:31.725Z,17.80
2018-08-14T06:46:00.478Z,18.87
2018-08-14T06:48:29.205Z,15.70
2018-08-14T06:50:57.984Z,19.60
2018-08-14T06:53:27.012Z,20.60
2018-08-14T06:55:55.728Z,19.53
2018-08-14T06:58:24.487Z,22.73
2018-08-14T07:00:53.146Z,24.53
2018-08-14T07:03:21.843Z,25.37
2018-08-14T07:05:50.624Z,28.00
2018-08-14T07:08:19.478Z,26.10
2018-08-14T07:10:48.649Z,21.80
2018-08-14T07:13:17.592Z,30.27
2018-08-14T07:15:46.659Z,25.53
2018-08-14T07:18:16.107Z,32.60
2018-08-14T07:20:45.393Z,33.53
2018-08-14T07:23:14.293Z,30.03
2018-08-14T07:25:43.078Z,38.50
2018-08-14T07:28:11.947Z,30.70
2018-08-14T07:30:40.645Z,26.57
2018-08-14T07:33:09.647Z,29.90
2018-08-14T07:35:38.389Z,31.40
2018-08-14T07:38:07.102Z,28.53
2018-08-14T07:40:35.808Z,26.20
2018-08-14T07:43:05.027Z,27.80
2018-08-14T07:45:34.383Z,24.93
2018-08-14T07:48:03.208Z,26.83
2018-08-14T07:50:31.977Z,25.37
2018-08-14T07:53:00.919Z,23.53
2018-08-14T07:55:29.791Z,22.20
2018-08-14T07:57:59.143Z,28.30
2018-08-14T08:00:27.892Z,22.80
2018-08-14T08:02:56.746Z,21.10
2018-08-14T08:05:25.555Z,20.93
2018-08-14T08:07:54.325Z,22.93
2018-08-14T08:10:23.033Z,23.83
2018-08-14T08:12:51.795Z,23.93
2018-08-14T08:15:20.861Z,18.30
2018-08-14T08:17:49.844Z,21.87
2018-08-14T08:20:28.305Z,19.23
2018-08-14T08:22:57.232Z,16.43
2018-08-14T08:25:27.021Z,17.73
2018-08-14T08:27:56.976Z,20.40
2018-08-14T08:30:26.006Z,18.37
2018-08-14T08:32:54.858Z,17.57
2018-08-14T08:35:23.770Z,20.23
2018-08-14T08:37:52.402Z,18.43
2018-08-14T08:40:20.938Z,17.93
2018-08-14T08:42:49.651Z,20.93
2018-08-14T08:45:18.371Z,21.90
2018-08-14T08:47:47.014Z,18.47
2018-08-14T08:50:16.454Z,17.80
2018-08-14T08:52:45.775Z,21.17
2018-08-14T08:55:17.488Z,19.87
2018-08-14T08:57:46.395Z,15.30
2018-08-14T09:00:16.684Z,12.93
2018-08-14T09:02:45.443Z,13.13
2018-08-14T09:05:16.210Z,12.63
2018-08-14T09:07:44.948Z,12.93
2018-08-14T09:10:13.638Z,11.77
2018-08-14T09:12:43.030Z,10.70
2018-08-14T09:15:12.279Z,12.87
2018-08-14T09:17:42.968Z,12.70
2018-08-14T09:20:13.643Z,8.70
2018-08-14T09:22:42.538Z,9.23
2018-08-14T09:25:13.368Z,12.83
2018-08-14T09:27:43.051Z,10.70
2018-08-14T09:30:14.217Z,11.00
2018-08-14T09:32:42.907Z,9.97
2018-08-14T09:35:13.102Z,9.30
2018-08-14T09:37:41.809Z,8.63
2018-08-14T09:40:15.470Z,8.77
2018-08-14T09:42:44.173Z,6.97
2018-08-14T09:45:13.471Z,8.03
2018-08-14T09:47:42.321Z,5.87
2018-08-14T09:50:14.878Z,5.08
2018-08-14T09:52:44.311Z,3.83
2018-08-14T09:55:13.747Z,4.00
2018-08-14T09:57:42.422Z,3.62
2018-08-14T10:00:47.069Z,3.35
2018-08-14T10:03:21.509Z,2.77
2018-08-14T10:05:55.373Z,2.62
2018-08-14T10:08:24.333Z,3.40
2018-08-14T10:10:53.050Z,2.60
2018-08-14T10:13:21.928Z,2.80
2018-08-14T10:15:51.589Z,3.02
2018-08-14T10:18:25.815Z,3.25
2018-08-14T10:20:54.738Z,5.17
2018-08-14T10:23:24.081Z,4.60
2018-08-14T10:25:53.344Z,4.20
2018-08-14T10:28:24.147Z,4.15
2018-08-14T10:30:52.968Z,4.90
2018-08-14T10:33:22.126Z,3.80
2018-08-14T10:35:50.751Z,5.58
2018-08-14T10:38:20.439Z,7.65
2018-08-14T10:40:49.544Z,3.55
2018-08-14T10:43:18.210Z,3.60
2018-08-14T10:45:47.022Z,3.75
2018-08-14T10:48:15.692Z,4.03
2018-08-14T10:50:44.409Z,2.92
2018-08-14T10:53:13.046Z,3.72
2018-08-14T10:55:41.792Z,5.37
2018-08-14T10:58:10.684Z,3.63
2018-08-14T11:00:39.376Z,3.90
2018-08-14T11:03:07.916Z,4.10
2018-08-14T11:05:39.696Z,3.73
2018-08-14T11:08:08.627Z,4.77
2018-08-14T11:10:42.538Z,3.40
2018-08-14T11:13:11.202Z,3.37
2018-08-14T11:15:39.997Z,4.87
2018-08-14T11:18:09.233Z,3.07
2018-08-14T11:20:38.027Z,2.77
2018-08-14T11:23:07.027Z,2.67
2018-08-14T11:25:35.675Z,2.95
2018-08-14T11:28:04.290Z,3.05
2018-08-14T11:30:32.974Z,2.65
2018-08-14T11:33:01.769Z,2.55
2018-08-14T11:36:05.154Z,3.72
2018-08-14T11:38:34.427Z,1.72
2018-08-14T11:41:04.069Z,3.80
2018-08-14T11:43:33.057Z,4.10
2018-08-14T11:46:02.221Z,5.37
2018-08-14T11:48:31.174Z,3.92
2018-08-14T11:51:00.571Z,2.92
2018-08-14T11:53:29.763Z,2.62
2018-08-14T11:56:00.079Z,3.30
2018-08-14T11:58:29.216Z,4.30
2018-08-14T12:00:58.052Z,2.75
2018-08-14T12:03:27.414Z,2.30
2018-08-14T12:05:56.150Z,2.83
2018-08-14T12:08:24.823Z,2.50
2018-08-14T12:10:53.782Z,2.72
2018-08-14T12:13:22.545Z,2.27
2018-08-14T12:15:51.442Z,2.35
2018-08-14T12:18:20.154Z,2.65
2018-08-14T12:20:48.879Z,2.30
2018-08-14T12:23:17.639Z,3.67
2018-08-14T12:25:46.475Z,2.25
2018-08-14T12:28:15.137Z,3.83
2018-08-14T12:30:43.752Z,2.17
2018-08-14T12:33:12.507Z,2.02
2018-08-14T12:35:41.257Z,2.72
2018-08-14T12:38:10.195Z,3.30
2018-08-14T12:40:38.892Z,5.00
2018-08-14T12:43:07.535Z,2.30
2018-08-14T12:45:36.425Z,2.58
2018-08-14T12:48:05.896Z,2.50
2018-08-14T12:50:34.909Z,2.53
2018-08-14T12:53:03.602Z,3.10
2018-08-14T12:55:32.334Z,3.92
2018-08-14T12:58:00.995Z,2.40
2018-08-14T13:00:30.663Z,2.60
2018-08-14T13:02:59.192Z,2.77
2018-08-14T13:05:28.639Z,2.60
2018-08-14T13:07:57.798Z,2.58
2018-08-14T13:10:26.576Z,2.95
2018-08-14T13:12:55.173Z,3.77
2018-08-14T13:15:23.866Z,3.25
2018-08-14T13:18:00.363Z,3.20
2018-08-14T13:20:29.018Z,2.70
2018-08-14T13:22:57.852Z,2.33
2018-08-14T13:25:26.609Z,4.03
2018-08-14T13:27:55.304Z,2.97
2018-08-14T13:30:23.908Z,2.93
2018-08-14T13:32:52.506Z,2.83
2018-08-14T13:35:21.045Z,2.80
2018-08-14T13:37:49.572Z,2.50
2018-08-14T13:40:18.273Z,2.47
2018-08-14T13:42:47.404Z,3.03
2018-08-14T13:45:16.023Z,3.57
2018-08-14T13:47:44.797Z,2.80
2018-08-14T13:50:13.979Z,3.00
2018-08-14T13:52:42.604Z,5.73
2018-08-14T13:55:17.391Z,3.67
2018-08-14T13:57:46.507Z,2.80
2018-08-14T14:00:18.707Z,3.00
2018-08-14T14:02:47.435Z,4.60
2018-08-14T14:05:16.300Z,3.27
2018-08-14T14:07:44.915Z,3.83
2018-08-14T14:10:14.899Z,3.50
2018-08-14T14:12:43.698Z,4.30
2018-08-14T14:15:17.445Z,5.13
2018-08-14T14:17:47.447Z,5.27
2018-08-14T14:20:19.633Z,5.90
2018-08-14T14:22:48.238Z,3.83
2018-08-14T14:25:16.906Z,3.73
2018-08-14T14:27:45.608Z,5.10
2018-08-14T14:30:15.974Z,3.67
2018-08-14T14:32:44.968Z,2.97
2018-08-14T14:35:14.203Z,2.80
2018-08-14T14:37:43.167Z,3.77
2018-08-14T14:40:17.890Z,4.87
2018-08-14T14:42:46.519Z,3.07
2018-08-14T14:45:15.504Z,5.00
2018-08-14T14:47:45.973Z,3.17
2018-08-14T14:50:15.636Z,3.57
2018-08-14T14:52:44.793Z,4.70
2018-08-14T14:55:16.786Z,3.87
2018-08-14T14:57:46.068Z,3.57
2018-08-14T15:00:18.587Z,2.60
2018-08-14T15:02:48.777Z,2.97
2018-08-14T15:05:18.811Z,4.63
2018-08-14T15:07:48.624Z,3.63
2018-08-14T15:10:17.352Z,3.63
2018-08-14T15:12:46.670Z,4.00
2018-08-14T15:15:15.326Z,3.67
2018-08-14T15:17:44.930Z,3.80
2018-08-14T15:20:19.719Z,3.20
2018-08-14T15:22:49.452Z,2.93
2018-08-14T15:25:19.788Z,5.20
2018-08-14T15:29:03.079Z,2.40
2018-08-14T15:31:31.952Z,3.73
2018-08-14T15:34:01.023Z,3.00
2018-08-14T15:36:30.846Z,3.07
2018-08-14T15:39:00.864Z,3.90
2018-08-14T15:41:30.515Z,4.90
2018-08-14T15:43:59.597Z,4.13
2018-08-14T15:46:28.239Z,5.23
2018-08-14T15:48:56.890Z,3.70
2018-08-14T15:54:16.106Z,3.10
2018-08-14T15:56:45.086Z,2.80
2018-08-14T15:59:13.947Z,2.73
2018-08-14T16:01:42.832Z,2.80
2018-08-14T16:04:12.913Z,3.43
2018-08-14T16:06:41.529Z,2.20
2018-08-14T16:09:14.786Z,2.90
2018-08-14T16:11:44.588Z,2.83
2018-08-14T16:14:13.429Z,1.90
2018-08-14T16:16:42.119Z,3.43
2018-08-14T16:19:11.981Z,3.17
2018-08-14T16:21:41.096Z,4.13
2018-08-14T16:24:10.126Z,3.03
2018-08-14T16:26:38.840Z,2.77
2018-08-14T16:29:07.605Z,1.73
2018-08-14T16:31:37.212Z,3.53
2018-08-14T16:34:06.008Z,4.33
2018-08-14T16:36:34.668Z,3.30
2018-08-14T16:39:03.318Z,2.20
2018-08-14T16:41:31.912Z,3.57
2018-08-14T16:44:00.593Z,2.60
2018-08-14T16:46:29.382Z,1.60
2018-08-14T16:48:58.108Z,2.30
2018-08-14T16:51:26.705Z,3.47
2018-08-14T16:53:55.344Z,2.13
2018-08-14T16:56:24.019Z,3.97
2018-08-14T16:58:52.763Z,3.23
2018-08-14T17:01:21.553Z,4.30
2018-08-14T17:03:50.279Z,2.87
2018-08-14T17:06:20.676Z,4.20
2018-08-14T17:08:49.954Z,3.30
2018-08-14T17:11:18.537Z,3.10
2018-08-14T17:13:47.544Z,4.20
2018-08-14T17:16:16.227Z,3.17
2018-08-14T17:18:45.030Z,3.63
2018-08-14T17:21:12.474Z,6.97
2018-08-14T17:23:41.150Z,2.83
2018-08-14T17:26:09.963Z,5.23
2018-08-14T17:28:38.632Z,3.83
2018-08-14T17:31:07.594Z,4.03
2018-08-14T17:33:36.277Z,3.73
2018-08-14T17:36:05.687Z,3.73
2018-08-14T17:38:34.387Z,3.73
2018-08-14T17:41:03.091Z,4.97
2018-08-14T17:43:31.748Z,3.67
2018-08-14T17:46:00.590Z,5.67
2018-08-14T17:48:29.516Z,3.03
2018-08-14T17:50:58.164Z,3.17
2018-08-14T17:53:26.923Z,5.50
2018-08-14T17:55:55.592Z,4.67
2018-08-14T17:58:24.306Z,4.63
2018-08-14T18:00:52.909Z,3.90
2018-08-14T18:03:21.576Z,6.27
2018-08-14T18:05:50.266Z,4.77
2018-08-14T18:08:19.128Z,4.87
2018-08-14T18:10:47.713Z,3.97
2018-08-14T18:13:16.564Z,4.13
2018-08-14T18:15:45.190Z,3.40
2018-08-14T18:18:13.846Z,3.43
2018-08-14T18:20:42.511Z,4.07
2018-08-14T18:23:11.170Z,4.20
2018-08-14T18:25:39.810Z,3.80
2018-08-14T18:28:08.530Z,4.63
2018-08-14T18:30:37.068Z,3.90
2018-08-14T18:33:05.768Z,3.57
2018-08-14T18:35:34.452Z,4.77
2018-08-14T18:38:03.101Z,4.00
2018-08-14T18:40:31.649Z,5.20
2018-08-14T18:43:00.471Z,4.03
2018-08-14T18:45:29.197Z,6.67
2018-08-14T18:47:57.872Z,4.53
2018-08-14T18:50:26.511Z,6.83
2018-08-14T18:52:55.175Z,4.63
2018-08-14T18:55:23.764Z,5.00
2018-08-14T18:57:52.357Z,4.50
2018-08-14T19:00:23.262Z,4.30
2018-08-14T19:02:52.703Z,3.77
2018-08-14T19:05:22.138Z,4.37
2018-08-14T19:07:51.027Z,4.53
2018-08-14T19:10:21.174Z,5.37
2018-08-14T19:12:50.793Z,4.83
2018-08-14T19:15:25.788Z,5.07
2018-08-14T19:17:54.672Z,4.10
2018-08-14T19:20:23.519Z,5.27
2018-08-14T19:22:52.137Z,4.90
2018-08-14T19:25:20.745Z,3.67
2018-08-14T19:27:49.510Z,4.97
2018-08-14T19:30:18.166Z,4.73
2018-08-14T19:32:46.839Z,4.63
2018-08-14T19:35:16.285Z,4.83
2018-08-14T19:37:44.945Z,6.50
2018-08-14T19:40:16.013Z,6.87
2018-08-14T19:42:45.087Z,5.60
2018-08-14T19:45:13.770Z,8.67
2018-08-14T19:47:42.607Z,6.97
2018-08-14T19:50:12.462Z,6.73
2018-08-14T19:52:41.060Z,8.70
2018-08-14T19:55:11.763Z,8.17
2018-08-14T19:57:41.152Z,6.53
2018-08-14T20:00:11.313Z,5.73
2018-08-14T20:02:40.335Z,6.30
2018-08-14T20:05:11.057Z,5.53
2018-08-14T20:07:39.780Z,5.70
2018-08-14T20:10:10.220Z,5.77
2018-08-14T20:12:38.940Z,7.30
2018-08-14T20:15:09.573Z,6.33
2018-08-14T20:17:38.296Z,5.97
2018-08-14T20:20:10.200Z,6.30
2018-08-14T20:22:38.765Z,6.37
2018-08-14T20:25:07.588Z,6.13
2018-08-14T20:27:36.169Z,6.13
2018-08-14T20:30:07.396Z,8.03
2018-08-14T20:32:36.005Z,6.57
2018-08-14T20:35:05.811Z,8.77
2018-08-14T20:37:34.402Z,6.70
2018-08-14T20:40:03.226Z,5.57
2018-08-14T20:42:31.803Z,5.70
2018-08-14T20:45:00.389Z,6.70
2018-08-14T20:47:29.689Z,8.33
2018-08-14T20:49:58.367Z,6.47
2018-08-14T20:52:26.890Z,7.27
2018-08-14T20:54:55.609Z,8.17
2018-08-14T20:57:24.147Z,6.53
2018-08-14T20:59:52.788Z,6.83
2018-08-14T21:02:21.337Z,8.63
2018-08-14T21:04:49.960Z,7.07
2018-08-14T21:07:18.480Z,7.03
2018-08-14T21:09:47.080Z,6.97
2018-08-14T21:12:18.337Z,7.43
2018-08-14T21:14:46.944Z,6.97
2018-08-14T21:17:15.638Z,7.70
2018-08-14T21:19:44.256Z,7.60
2018-08-14T21:22:12.837Z,7.97
2018-08-14T21:24:41.386Z,9.40
2018-08-14T21:27:09.969Z,7.23
2018-08-14T21:29:38.553Z,8.80
2018-08-14T21:32:07.086Z,8.53
2018-08-14T21:34:35.709Z,9.47
2018-08-14T21:37:04.269Z,9.00
2018-08-14T21:39:32.830Z,8.73
2018-08-14T21:42:01.416Z,10.10
2018-08-14T21:44:30.126Z,9.23
2018-08-14T21:46:58.681Z,10.13
2018-08-14T21:49:27.225Z,10.97
2018-08-14T21:51:55.898Z,10.30
2018-08-14T21:54:24.600Z,10.23
2018-08-14T21:56:53.213Z,9.53
2018-08-14T21:59:21.823Z,10.20
2018-08-14T22:01:50.697Z,9.40
2018-08-14T22:04:19.513Z,11.87
2018-08-14T22:06:48.285Z,10.00
2018-08-14T22:09:17.074Z,9.10
2018-08-14T22:11:45.859Z,8.53
2018-08-14T22:14:14.733Z,7.17
2018-08-14T22:16:43.600Z,9.07
2018-08-14T22:19:12.872Z,7.20
2018-08-14T22:21:42.062Z,6.63
2018-08-14T22:24:10.816Z,7.27
2018-08-14T22:26:39.727Z,7.00
2018-08-14T22:29:08.364Z,6.40
2018-08-14T22:31:37.203Z,6.33
2018-08-14T22:34:06.107Z,6.60
2018-08-14T22:36:34.906Z,6.27
2018-08-14T22:39:03.834Z,5.50
2018-08-14T22:41:32.592Z,5.63
2018-08-14T22:44:01.469Z,5.60
2018-08-14T22:46:30.247Z,5.20
2018-08-14T22:48:58.982Z,4.90
2018-08-14T22:51:27.746Z,5.83
2018-08-14T22:53:56.400Z,4.27
2018-08-14T22:56:25.200Z,4.60
2018-08-14T22:58:53.970Z,4.50
2018-08-14T23:01:22.972Z,3.83
2018-08-14T23:03:52.680Z,4.10
2018-08-14T23:06:21.568Z,4.27
2018-08-14T23:08:50.422Z,4.43
2018-08-14T23:11:19.332Z,3.80
2018-08-14T23:13:48.132Z,3.63
2018-08-14T23:16:16.991Z,4.40
2018-08-14T23:18:45.877Z,3.80
2018-08-14T23:21:14.803Z,4.10
2018-08-14T23:23:43.601Z,3.30
2018-08-14T23:26:12.392Z,3.10
2018-08-14T23:28:41.378Z,3.80
2018-08-14T23:31:10.303Z,3.53
2018-08-14T23:33:39.208Z,3.37
2018-08-14T23:36:08.249Z,3.93
2018-08-14T23:38:37.111Z,3.53
2018-08-14T23:41:06.057Z,4.57
2018-08-14T23:43:34.815Z,3.83
2018-08-14T23:46:03.723Z,3.60
2018-08-14T23:48:32.467Z,3.80
2018-08-14T23:51:01.477Z,5.70
2018-08-14T23:53:30.379Z,4.43
2018-08-14T23:55:59.111Z,3.90
2018-08-14T23:58:28.058Z,4.07
